ENOC weather

Oseberg C Platform
Norway

Public forecast

Using degrees Celsius for public forecast. Weather courtesy of forecast.io.

METAR (pilot weather report)

Closest report is Oseberg A Platform, 7.1 nm (13.2 km) SSE. Retrieved 2019/05/25 06:20 UTC (28 minutes ago):

ENOA 250620Z VRB04KT 5000 -SHRA SCT005 BKN010 09/08 Q1011 W///S/

TAF (pilot weather forecast)

Closest forecast is Oseberg A Platform, 7.1 nm (13.2 km) SSE. Retrieved 2019/05/25 06:57 UTC (0 seconds ago):

TAF ENOA 250500Z 2506/2606 VRB08KT 9999 FEW015 BKN025 TEMPO 2506/2515 3000 SHRA BR BKN007 TEMPO 2515/2606 SHRA BKN014TCU BECMG 2514/2516 35020KT